Terminal Aerodrome Forecast
Issued by NWS

Home | Current Version | Previous Version | Text Only | Print | Product List | Glossary On
Versions: 1 2 3 4 5 6 7 8 9 10 11 12 13 14 15 16 17 18 19 20 21 22 23 24
000
FTUS45 KREV 261139
TAFTVL
TAF
KTVL 261139Z 2612/2712 19003KT P6SM SCT040
     FM261800 19012G22KT P6SM SCT040 BKN180 WS020/23035KT
     FM262200 19021G34KT P6SM BKN035 OVC180 WS015/23040KT
     FM270000 20015G25KT P6SM VCSH BKN030 OVC050
     FM270500 19014G24KT 1SM -SN BKN015 OVC030=

USA.gov is the U.S. government's official web portal to all federal, state and local government web resources and services.